Time;durP1;ratioP1;P1;durP2;ratioP2;P2;SDS_P1;SDS_P2;PMS_P1;PMS_P2;Temp;Humidity;BMP_temperature;BMP_pressure;BME280_temperature;BME280_humidity;BME280_pressure;Samples;Min_cycle;Max_cycle;Signal;HPM_P1;HPM_P2
2021/04/05 00:00:28;;;;;;;13.43;3.25;;;25.80;99.90;;;;;;5050641;28;20387;-80
2021/04/05 00:02:57;;;;;;;11.20;2.80;;;26.40;99.90;;;;;;5038753;28;20427;-80
2021/04/05 00:05:38;;;;;;;12.52;3.30;;;27.30;99.90;;;;;;5039962;28;20389;-83
2021/04/05 00:08:06;;;;;;;8.07;2.60;;;28.80;99.90;;;;;;5046092;28;20386;-83
2021/04/05 00:10:38;;;;;;;9.90;2.67;;;29.90;99.90;;;;;;5056721;28;20760;-80
2021/04/05 00:13:10;;;;;;;7.72;2.75;;;31.00;99.90;;;;;;5044781;28;20383;-79
2021/04/05 00:15:37;;;;;;;5.35;2.47;;;29.70;98.40;;;;;;5042237;28;20389;-80
2021/04/05 00:18:05;;;;;;;8.45;2.90;;;28.00;99.90;;;;;;5042513;28;20390;-80
2021/04/05 00:20:49;;;;;;;7.60;3.33;;;26.80;99.90;;;;;;5047469;28;20782;-81
2021/04/05 00:23:16;;;;;;;7.40;3.22;;;26.50;99.90;;;;;;5037994;28;20404;-80
2021/04/05 00:25:43;;;;;;;8.65;3.17;;;26.30;99.90;;;;;;5047337;28;20750;-80
2021/04/05 00:28:10;;;;;;;14.85;3.53;;;26.20;99.90;;;;;;5045318;28;20376;-81
2021/04/05 00:30:38;;;;;;;8.90;3.00;;;26.80;99.90;;;;;;5031228;28;20385;-81
2021/04/05 00:33:06;;;;;;;9.85;2.80;;;27.70;99.90;;;;;;5034707;28;20408;-81
2021/04/05 00:35:35;;;;;;;10.18;2.90;;;28.60;99.90;;;;;;5045003;28;20410;-81
2021/04/05 00:38:06;;;;;;;6.83;3.00;;;29.20;99.60;;;;;;5041912;28;20401;-80
2021/04/05 00:40:45;;;;;;;7.95;2.72;;;28.50;99.90;;;;;;5032743;28;20406;-81
2021/04/05 00:43:14;;;;;;;6.23;2.60;;;28.40;99.90;;;;;;5034174;28;20731;-81
2021/04/05 00:45:41;;;;;;;6.68;2.92;;;28.50;99.90;;;;;;5030911;28;20399;-81
2021/04/05 00:48:09;;;;;;;8.13;2.85;;;28.30;99.90;;;;;;5032258;28;20459;-82
2021/04/05 00:50:47;;;;;;;9.20;2.85;;;28.70;99.90;;;;;;5047004;28;20375;-81
2021/04/05 00:53:17;;;;;;;7.03;2.75;;;29.20;99.00;;;;;;5032876;28;20405;-81
2021/04/05 00:55:46;;;;;;;7.18;2.55;;;29.00;98.00;;;;;;5032994;28;20393;-81
2021/04/05 00:58:15;;;;;;;8.52;2.67;;;28.90;98.80;;;;;;5041150;28;20403;-82
2021/04/05 01:00:42;;;;;;;9.23;3.13;;;28.40;99.30;;;;;;5060318;28;20395;-81
2021/04/05 01:03:12;;;;;;;7.82;2.80;;;28.40;99.90;;;;;;5038594;28;20407;-81
2021/04/05 01:05:40;;;;;;;6.25;2.67;;;28.50;99.90;;;;;;5030812;28;20370;-81
2021/04/05 01:08:10;;;;;;;6.72;2.55;;;28.50;99.20;;;;;;5041940;28;20425;-82
2021/04/05 01:10:38;;;;;;;6.22;2.70;;;27.80;99.90;;;;;;5045776;28;20392;-80
2021/04/05 01:13:06;;;;;;;10.20;2.63;;;27.00;99.90;;;;;;5042704;28;20525;-83
2021/04/05 01:15:33;;;;;;;9.75;2.80;;;26.30;99.90;;;;;;5038454;28;20427;-81
2021/04/05 01:18:01;;;;;;;10.82;2.80;;;26.10;99.90;;;;;;5041814;28;20827;-78
2021/04/05 01:20:28;;;;;;;10.05;3.15;;;26.10;99.90;;;;;;5039053;28;20402;-81
2021/04/05 01:22:56;;;;;;;12.00;3.03;;;26.10;99.90;;;;;;5037328;28;20496;-81
2021/04/05 01:25:23;;;;;;;6.93;2.70;;;25.80;99.90;;;;;;5035061;28;20399;-80
2021/04/05 01:27:53;;;;;;;7.45;2.58;;;25.60;99.90;;;;;;5035138;28;20405;-80
2021/04/05 01:30:30;;;;;;;8.35;2.75;;;25.50;99.90;;;;;;5034407;28;20427;-80
2021/04/05 01:33:12;;;;;;;8.65;2.40;;;25.50;99.90;;;;;;5041363;28;20407;-83
2021/04/05 01:36:00;;;;;;;8.02;2.70;;;25.40;99.90;;;;;;5043690;28;20394;-83
2021/04/05 01:38:31;;;;;;;8.25;2.60;;;25.20;99.90;;;;;;5030007;28;20748;-83
2021/04/05 01:41:04;;;;;;;9.43;2.78;;;24.90;99.90;;;;;;5033081;28;21017;-82
2021/04/05 01:43:32;;;;;;;9.75;2.80;;;24.80;99.90;;;;;;5046828;28;20419;-83
2021/04/05 01:46:00;;;;;;;5.32;2.25;;;24.80;99.90;;;;;;5047268;28;20747;-82
2021/04/05 01:48:29;;;;;;;11.43;2.78;;;24.90;99.90;;;;;;5030182;28;20981;-82
2021/04/05 01:51:08;;;;;;;9.48;2.88;;;24.90;99.90;;;;;;5038636;28;20884;-81
2021/04/05 01:53:37;;;;;;;10.30;2.70;;;25.00;99.90;;;;;;5042842;28;20824;-81
2021/04/05 01:56:07;;;;;;;10.02;2.63;;;25.00;99.90;;;;;;5049485;28;20467;-82
2021/04/05 01:58:38;;;;;;;8.23;2.60;;;25.10;99.90;;;;;;5048844;28;20416;-83
2021/04/05 02:01:06;;;;;;;10.20;2.22;;;25.20;99.90;;;;;;5044235;28;20434;-81
2021/04/05 02:03:36;;;;;;;8.43;2.30;;;25.10;99.90;;;;;;5030662;28;20459;-81
2021/04/05 02:06:12;;;;;;;7.53;2.43;;;25.20;99.90;;;;;;5040216;28;21187;-81
2021/04/05 02:08:39;;;;;;;9.98;2.58;;;25.10;99.90;;;;;;5049355;28;20870;-81
2021/04/05 02:11:16;;;;;;;8.93;2.45;;;24.90;99.90;;;;;;5033722;28;20404;-82
2021/04/05 02:13:46;;;;;;;7.45;2.35;;;24.80;99.90;;;;;;5044588;28;20480;-81
2021/04/05 02:16:19;;;;;;;10.97;2.73;;;24.90;99.90;;;;;;5029494;28;20492;-82
2021/04/05 02:18:48;;;;;;;7.38;2.40;;;24.90;99.90;;;;;;5041613;28;20478;-82
2021/04/05 02:21:16;;;;;;;9.38;2.92;;;24.90;99.90;;;;;;5034727;28;20457;-81
2021/04/05 02:23:46;;;;;;;6.40;2.17;;;24.90;99.90;;;;;;5039062;28;20466;-82
2021/04/05 02:26:17;;;;;;;8.85;2.15;;;25.10;99.90;;;;;;5033745;28;20401;-83
2021/04/05 02:28:46;;;;;;;8.75;2.47;;;25.20;99.90;;;;;;5036373;28;20875;-84
2021/04/05 02:31:19;;;;;;;9.35;2.50;;;25.20;99.90;;;;;;5051662;28;20398;-83
2021/04/05 02:33:49;;;;;;;9.85;2.60;;;24.80;99.90;;;;;;5044824;28;20384;-83
2021/04/05 02:36:18;;;;;;;8.10;2.40;;;24.40;99.90;;;;;;5044135;28;20407;-83
2021/04/05 02:38:51;;;;;;;7.90;2.50;;;24.40;99.90;;;;;;5039901;28;20387;-80
2021/04/05 02:41:20;;;;;;;7.30;2.08;;;24.50;99.90;;;;;;5039713;28;20409;-81
2021/04/05 02:43:47;;;;;;;7.50;2.35;;;24.70;99.90;;;;;;5028916;28;20393;-80
2021/04/05 02:46:17;;;;;;;7.35;2.38;;;24.80;99.90;;;;;;5035708;28;20392;-80
2021/04/05 02:48:50;;;;;;;7.03;2.22;;;25.00;99.90;;;;;;5033516;28;20412;-79
2021/04/05 02:51:18;;;;;;;6.20;2.17;;;25.20;99.90;;;;;;5039705;28;21053;-79
2021/04/05 02:53:51;;;;;;;8.15;2.20;;;25.20;99.90;;;;;;5032411;28;20921;-80
2021/04/05 02:56:19;;;;;;;7.70;2.40;;;25.20;99.90;;;;;;5044145;28;20444;-80
2021/04/05 02:58:48;;;;;;;6.95;2.17;;;25.20;99.90;;;;;;5039589;28;20402;-80
2021/04/05 03:01:16;;;;;;;6.05;2.20;;;25.20;99.90;;;;;;5038243;28;20484;-82
2021/04/05 03:03:45;;;;;;;8.60;2.00;;;25.10;99.90;;;;;;5043210;28;20439;-82
2021/04/05 03:06:21;;;;;;;6.65;2.13;;;25.10;99.90;;;;;;5044832;28;20384;-82
2021/04/05 03:08:49;;;;;;;7.67;1.93;;;25.20;99.90;;;;;;5036249;28;20397;-82
2021/04/05 03:11:18;;;;;;;6.67;2.17;;;25.30;99.90;;;;;;5028565;28;20752;-82
2021/04/05 03:13:46;;;;;;;5.28;1.92;;;25.50;99.10;;;;;;5053575;28;20407;-82
2021/04/05 03:16:18;;;;;;;5.75;2.00;;;25.50;98.60;;;;;;5031569;28;20428;-81
2021/04/05 03:18:50;;;;;;;7.28;2.00;;;25.40;99.60;;;;;;5046454;28;20744;-82
2021/04/05 03:21:19;;;;;;;10.60;2.47;;;25.60;97.40;;;;;;5039214;28;20393;-81
2021/04/05 03:23:46;;;;;;;7.25;1.80;;;25.60;97.50;;;;;;5028315;28;20418;-82
2021/04/05 03:26:14;;;;;;;11.83;2.13;;;25.70;98.60;;;;;;5047266;28;20893;-82
2021/04/05 03:28:41;;;;;;;8.45;2.38;;;25.70;99.70;;;;;;5033963;28;20386;-82
2021/04/05 03:31:24;;;;;;;9.20;2.80;;;25.70;99.90;;;;;;5029767;28;20397;-82
2021/04/05 03:34:19;;;;;;;6.90;2.13;;;25.50;99.60;;;;;;5031394;28;20401;-82
2021/04/05 03:36:50;;;;;;;9.60;2.22;;;25.40;99.90;;;;;;5032458;28;20465;-81
2021/04/05 03:39:18;;;;;;;10.45;2.40;;;25.50;99.90;;;;;;5035747;28;20383;-81
2021/04/05 03:42:02;;;;;;;9.95;2.40;;;25.60;99.90;;;;;;5049873;28;20447;-81
2021/04/05 03:44:53;;;;;;;7.43;2.40;;;25.60;99.90;;;;;;5045409;28;20963;-81
2021/04/05 03:47:47;;;;;;;7.40;2.72;;;25.70;99.90;;;;;;5034263;28;20428;-81
2021/04/05 03:50:29;;;;;;;8.90;2.90;;;25.80;99.90;;;;;;5032938;28;20864;-82
2021/04/05 03:53:30;;;;;;;8.13;2.53;;;25.90;99.90;;;;;;5050101;28;20854;-81
2021/04/05 03:56:12;;;;;;;5.70;2.15;;;25.40;99.90;;;;;;5032757;28;20464;-82
2021/04/05 03:58:43;;;;;;;7.00;2.10;;;25.20;99.90;;;;;;5032565;28;20377;-83
2021/04/05 04:01:13;;;;;;;8.30;2.50;;;25.20;99.90;;;;;;5065669;28;20747;-84
2021/04/05 04:04:20;;;;;;;7.03;2.17;;;25.30;99.90;;;;;;5041279;28;20433;-82
2021/04/05 04:06:52;;;;;;;7.63;2.33;;;25.20;99.90;;;;;;5046597;28;20409;-82
2021/04/05 04:09:22;;;;;;;8.90;2.50;;;25.10;99.90;;;;;;5047555;28;20387;-80
2021/04/05 04:11:52;;;;;;;7.45;2.10;;;25.00;99.90;;;;;;5062207;28;20399;-83
2021/04/05 04:14:19;;;;;;;5.75;1.95;;;24.80;99.90;;;;;;5051531;28;20371;-80
2021/04/05 04:16:48;;;;;;;6.82;1.95;;;24.60;99.90;;;;;;5041900;28;20450;-84
2021/04/05 04:19:17;;;;;;;8.93;2.50;;;24.60;99.90;;;;;;5049444;28;20499;-80
2021/04/05 04:21:50;;;;;;;10.60;2.60;;;24.60;99.90;;;;;;5047542;28;20397;-80
2021/04/05 04:24:17;;;;;;;8.02;2.50;;;24.70;99.90;;;;;;5041948;28;20439;-81
2021/04/05 04:26:45;;;;;;;9.52;2.55;;;24.60;99.90;;;;;;5055151;28;20380;-80
2021/04/05 04:29:20;;;;;;;6.43;2.13;;;24.60;99.90;;;;;;5051557;28;20479;-80
2021/04/05 04:31:47;;;;;;;6.68;2.28;;;24.70;99.90;;;;;;5042496;28;20395;-80
2021/04/05 04:34:16;;;;;;;5.22;1.98;;;24.60;99.90;;;;;;5046149;28;20756;-82
2021/04/05 04:36:43;;;;;;;9.02;2.50;;;24.60;99.90;;;;;;5047820;28;20384;-83
2021/04/05 04:39:11;;;;;;;8.32;2.20;;;24.70;99.90;;;;;;5042438;28;20401;-80
2021/04/05 04:41:42;;;;;;;7.45;2.30;;;24.80;99.90;;;;;;5031688;28;20393;-83
2021/04/05 04:44:09;;;;;;;9.00;2.40;;;24.90;99.90;;;;;;5036959;28;20403;-81
2021/04/05 04:46:37;;;;;;;7.20;2.55;;;25.00;99.90;;;;;;5043931;28;20577;-81
2021/04/05 04:49:14;;;;;;;6.72;2.50;;;24.90;99.90;;;;;;5036298;28;20428;-80
2021/04/05 04:51:41;;;;;;;10.20;2.28;;;24.80;99.90;;;;;;5038037;28;20399;-82
2021/04/05 04:54:10;;;;;;;8.15;2.38;;;24.70;99.90;;;;;;5046098;28;20478;-81
2021/04/05 04:56:39;;;;;;;8.70;2.40;;;24.70;99.90;;;;;;5047553;28;20387;-82
2021/04/05 04:59:07;;;;;;;8.90;2.42;;;24.70;99.90;;;;;;5045578;28;20397;-82
2021/04/05 05:01:37;;;;;;;9.60;2.33;;;24.70;99.90;;;;;;5041661;28;20383;-82
2021/04/05 05:04:09;;;;;;;5.78;2.38;;;24.40;99.90;;;;;;5034842;28;20903;-81
2021/04/05 05:06:37;;;;;;;8.20;2.53;;;24.20;99.90;;;;;;5031536;28;20816;-80
2021/04/05 05:09:05;;;;;;;6.25;2.58;;;24.00;99.90;;;;;;5030860;28;20467;-82
2021/04/05 05:11:33;;;;;;;11.40;2.90;;;23.90;99.90;;;;;;5031070;28;20408;-81
2021/04/05 05:14:00;;;;;;;11.03;2.70;;;23.80;99.90;;;;;;5030746;28;20366;-81
2021/04/05 05:16:28;;;;;;;11.02;2.47;;;23.90;99.90;;;;;;5048467;28;20388;-82
2021/04/05 05:18:59;;;;;;;7.47;2.40;;;24.10;99.90;;;;;;5050374;28;20399;-81
2021/04/05 05:21:49;;;;;;;10.37;2.30;;;24.30;99.90;;;;;;5051869;28;20372;-82
2021/04/05 05:24:20;;;;;;;7.95;2.30;;;24.40;99.90;;;;;;5052725;28;20449;-82
2021/04/05 05:26:49;;;;;;;7.13;2.50;;;24.40;99.90;;;;;;5050404;28;20376;-82
2021/04/05 05:29:21;;;;;;;6.00;2.33;;;24.40;99.90;;;;;;5047627;28;20399;-79
2021/04/05 05:31:49;;;;;;;7.80;2.65;;;24.40;99.90;;;;;;5050518;28;20375;-81
2021/04/05 05:34:21;;;;;;;7.90;2.45;;;24.50;99.90;;;;;;5050022;28;20763;-81
2021/04/05 05:36:49;;;;;;;4.88;2.20;;;24.50;99.90;;;;;;5050721;28;20364;-80
2021/04/05 05:39:18;;;;;;;6.28;2.50;;;24.40;99.90;;;;;;5049973;28;20394;-82
2021/04/05 05:41:55;;;;;;;7.97;2.47;;;24.30;99.90;;;;;;5050288;28;20368;-81
2021/04/05 05:44:43;;;;;;;6.28;2.28;;;24.10;99.90;;;;;;5048830;28;20392;-82
2021/04/05 05:47:22;;;;;;;3.80;2.10;;;23.90;99.90;;;;;;5030847;28;20412;-82
2021/04/05 05:49:53;;;;;;;4.97;2.00;;;23.90;99.90;;;;;;5029949;28;20374;-81
2021/04/05 05:52:54;;;;;;;4.65;2.10;;;23.80;99.90;;;;;;5030163;28;20382;-82
2021/04/05 05:55:48;;;;;;;4.53;2.20;;;23.80;99.90;;;;;;5048415;28;20798;-82
2021/04/05 05:58:22;;;;;;;4.83;2.00;;;23.80;99.90;;;;;;5049950;28;20376;-82
2021/04/05 06:01:14;;;;;;;4.57;2.22;;;23.80;99.90;;;;;;5049763;28;20382;-82
2021/04/05 06:03:58;;;;;;;3.78;2.00;;;23.80;99.90;;;;;;5030106;28;20437;-82
2021/04/05 06:07:03;;;;;;;4.05;2.08;;;23.70;99.90;;;;;;5030256;28;20384;-81
2021/04/05 06:10:08;;;;;;;8.13;2.13;;;23.70;99.90;;;;;;5029609;28;20370;-82
2021/04/05 06:13:01;;;;;;;4.20;2.05;;;23.70;99.90;;;;;;5029568;28;20753;-81
2021/04/05 06:15:30;;;;;;;3.55;2.30;;;23.70;99.90;;;;;;5032557;28;20404;-81
2021/04/05 06:18:06;;;;;;;5.57;1.97;;;23.70;99.90;;;;;;5044417;28;20403;-82
2021/04/05 06:20:39;;;;;;;9.20;2.40;;;23.70;99.90;;;;;;5047654;28;20474;-81
2021/04/05 06:23:23;;;;;;;6.72;2.72;;;23.70;99.90;;;;;;5038637;28;20418;-80
2021/04/05 06:26:30;;;;;;;4.32;2.30;;;23.60;99.90;;;;;;5044831;28;20757;-79
2021/04/05 06:29:28;;;;;;;4.60;2.28;;;23.70;99.90;;;;;;5034813;28;20398;-79
2021/04/05 06:32:15;;;;;;;5.32;2.72;;;23.70;99.90;;;;;;5044138;28;20417;-82
2021/04/05 06:35:00;;;;;;;3.45;2.30;;;23.70;99.90;;;;;;5029260;28;20405;-81
2021/04/05 06:37:48;;;;;;;5.57;2.65;;;23.80;99.90;;;;;;5029242;28;20383;-80
2021/04/05 06:40:22;;;;;;;8.25;2.65;;;23.80;99.90;;;;;;5029895;28;20374;-80
2021/04/05 06:43:13;;;;;;;4.22;2.38;;;23.70;99.90;;;;;;5030028;28;20415;-81
2021/04/05 06:46:01;;;;;;;6.15;2.83;;;23.60;99.90;;;;;;5029715;28;20389;-81
2021/04/05 06:49:04;;;;;;;3.50;2.30;;;23.50;99.90;;;;;;5029694;28;20385;-80
2021/04/05 06:51:58;;;;;;;5.55;2.50;;;23.40;99.90;;;;;;5031013;28;20386;-80
2021/04/05 06:54:51;;;;;;;2.90;2.38;;;23.20;99.90;;;;;;5049276;28;20414;-81
2021/04/05 06:57:27;;;;;;;5.32;2.42;;;23.10;99.90;;;;;;5049542;28;20857;-81
2021/04/05 07:00:27;;;;;;;4.25;2.40;;;23.10;99.90;;;;;;5040957;28;20421;-80
2021/04/05 07:03:18;;;;;;;3.25;2.47;;;23.00;99.90;;;;;;5020687;28;21985;-80
2021/04/05 07:06:04;;;;;;;3.20;2.83;;;23.00;99.90;;;;;;5029801;28;20385;-80
2021/04/05 07:08:34;;;;;;;5.28;2.83;;;23.00;99.90;;;;;;5029131;28;20420;-81
2021/04/05 07:11:24;;;;;;;6.57;3.00;;;22.90;99.90;;;;;;5029830;28;20389;-81
2021/04/05 07:14:17;;;;;;;4.27;2.80;;;22.80;99.90;;;;;;5030258;28;20461;-82
2021/04/05 07:16:57;;;;;;;6.30;3.20;;;22.70;99.90;;;;;;5045518;28;20911;-81
2021/04/05 07:19:33;;;;;;;10.35;3.97;;;22.50;99.90;;;;;;5029317;28;20393;-84
2021/04/05 07:22:38;;;;;;;8.50;3.42;;;22.40;99.90;;;;;;5041350;28;20982;-82
2021/04/05 07:25:06;;;;;;;7.22;3.42;;;22.30;99.90;;;;;;5047066;28;20387;-81
2021/04/05 07:27:44;;;;;;;8.75;3.85;;;22.20;99.90;;;;;;5039529;28;20393;-81
2021/04/05 07:30:23;;;;;;;5.97;3.20;;;22.10;99.90;;;;;;5048509;28;20375;-82
2021/04/05 07:32:56;;;;;;;7.75;3.42;;;22.00;99.90;;;;;;5047362;28;20455;-83
2021/04/05 07:35:52;;;;;;;6.47;3.22;;;21.90;99.90;;;;;;5045076;28;20383;-83
2021/04/05 07:38:45;;;;;;;10.30;3.58;;;21.80;99.90;;;;;;5029913;28;21160;-83
2021/04/05 07:41:31;;;;;;;8.15;3.40;;;21.70;99.90;;;;;;5048349;28;20387;-82
2021/04/05 07:44:03;;;;;;;9.05;3.10;;;21.70;99.90;;;;;;5047540;28;20456;-82
2021/04/05 07:46:48;;;;;;;8.75;2.97;;;21.60;99.90;;;;;;5038589;28;20435;-82
2021/04/05 07:49:36;;;;;;;8.60;3.20;;;21.50;99.90;;;;;;5027182;28;20388;-82
2021/04/05 07:52:21;;;;;;;12.27;3.67;;;21.40;99.90;;;;;;5041514;28;20434;-83
2021/04/05 07:54:49;;;;;;;10.85;3.17;;;21.30;99.90;;;;;;5047341;28;20462;-84
2021/04/05 07:57:41;;;;;;;5.68;2.53;;;21.30;99.90;;;;;;5048162;28;20372;-81
2021/04/05 08:00:17;;;;;;;9.13;2.58;;;21.30;99.90;;;;;;5048805;28;20866;-82
2021/04/05 08:02:56;;;;;;;8.67;2.70;;;21.20;99.90;;;;;;5048566;28;20767;-82
2021/04/05 08:05:48;;;;;;;10.02;3.75;;;21.20;99.90;;;;;;5037298;28;20402;-81
2021/04/05 08:08:49;;;;;;;7.23;2.83;;;21.10;99.90;;;;;;5029506;28;20409;-81
2021/04/05 08:11:34;;;;;;;5.85;2.42;;;21.10;99.90;;;;;;5029402;28;20761;-79
2021/04/05 08:14:40;;;;;;;9.50;3.05;;;21.00;99.90;;;;;;5047747;28;20372;-81
2021/04/05 08:17:22;;;;;;;10.55;2.65;;;21.00;99.90;;;;;;5025339;28;21262;-80
2021/04/05 08:19:57;;;;;;;6.47;2.40;;;20.90;99.90;;;;;;5051407;28;20445;-81
2021/04/05 08:23:05;;;;;;;9.13;2.50;;;20.90;99.90;;;;;;5052292;28;20445;-81
2021/04/05 08:25:55;;;;;;;9.50;2.53;;;20.90;99.90;;;;;;5040580;28;20388;-81
2021/04/05 08:29:20;;;;;;;10.05;2.70;;;20.90;99.90;;;;;;5048696;28;20360;-82
2021/04/05 08:31:47;;;;;;;7.33;2.70;;;20.80;99.90;;;;;;4990069;28;20979;-82
2021/04/05 08:34:28;;;;;;;9.23;2.80;;;20.80;99.90;;;;;;4990321;28;20459;-82
2021/04/05 08:37:14;;;;;;;10.18;2.53;;;20.80;99.90;;;;;;5022287;28;20393;-82
2021/04/05 08:39:53;;;;;;;8.63;2.38;;;20.70;99.90;;;;;;5032615;28;20369;-81
2021/04/05 08:42:26;;;;;;;6.55;2.40;;;20.70;99.90;;;;;;5032941;28;21005;-82
2021/04/05 08:44:58;;;;;;;8.73;2.70;;;20.60;99.90;;;;;;5032272;28;20522;-82
2021/04/05 08:47:38;;;;;;;7.97;2.30;;;20.50;99.90;;;;;;5040219;28;20420;-81
2021/04/05 08:50:10;;;;;;;6.55;2.38;;;20.50;99.90;;;;;;5035454;28;20383;-81
2021/04/05 08:52:42;;;;;;;7.63;2.60;;;20.50;99.90;;;;;;5032543;28;20389;-82
2021/04/05 08:55:14;;;;;;;7.07;2.23;;;20.40;99.90;;;;;;5031759;28;20860;-81
2021/04/05 08:57:56;;;;;;;8.77;2.88;;;20.40;99.90;;;;;;5033336;28;20421;-80
2021/04/05 09:00:24;;;;;;;6.13;2.40;;;20.40;99.90;;;;;;5051500;28;20411;-81
2021/04/05 09:03:07;;;;;;;8.27;2.53;;;20.30;99.90;;;;;;5049573;28;20395;-81
2021/04/05 09:05:44;;;;;;;8.57;2.60;;;20.30;99.90;;;;;;5038012;28;20745;-81
2021/04/05 09:08:14;;;;;;;8.40;2.95;;;20.30;99.90;;;;;;5031727;28;20392;-82
2021/04/05 09:11:04;;;;;;;7.97;2.63;;;20.30;99.90;;;;;;5031078;28;20432;-82
2021/04/05 09:13:54;;;;;;;7.68;2.50;;;20.20;99.90;;;;;;5031389;28;20440;-79
2021/04/05 09:16:54;;;;;;;6.93;2.20;;;20.20;99.90;;;;;;5031402;28;20403;-81
2021/04/05 09:19:54;;;;;;;9.97;2.50;;;20.20;99.90;;;;;;5031519;28;20941;-80
2021/04/05 09:22:57;;;;;;;10.63;2.85;;;20.10;99.90;;;;;;5048300;28;20850;-82
2021/04/05 09:25:48;;;;;;;8.52;2.60;;;20.10;99.90;;;;;;4993626;28;20455;-81
2021/04/05 09:28:52;;;;;;;9.65;2.83;;;20.10;99.90;;;;;;5043968;28;20931;-82
2021/04/05 09:31:46;;;;;;;7.93;2.35;;;20.10;99.90;;;;;;5038992;28;20377;-82
2021/04/05 09:34:34;;;;;;;12.57;2.70;;;20.10;99.90;;;;;;5027420;28;20714;-82
2021/04/05 09:37:29;;;;;;;8.32;2.70;;;20.10;99.90;;;;;;5048871;28;20380;-82
2021/04/05 09:40:24;;;;;;;9.10;2.58;;;20.10;99.90;;;;;;5047180;28;20412;-82
2021/04/05 09:43:28;;;;;;;8.68;2.60;;;20.10;99.90;;;;;;5027072;28;20900;-81
2021/04/05 09:46:07;;;;;;;11.25;3.00;;;20.10;99.90;;;;;;5037049;28;20496;-81
2021/04/05 09:48:58;;;;;;;8.93;2.97;;;20.00;99.90;;;;;;5025528;28;20864;-82
2021/04/05 09:51:47;;;;;;;6.67;2.70;;;20.00;99.90;;;;;;5026241;28;20500;-82
2021/04/05 09:54:27;;;;;;;10.57;2.85;;;20.00;99.90;;;;;;5027155;28;20428;-81
2021/04/05 09:56:59;;;;;;;6.20;2.80;;;20.00;99.90;;;;;;5046957;28;20376;-82
2021/04/05 09:59:51;;;;;;;6.45;2.60;;;20.00;99.90;;;;;;5046966;28;20471;-82
2021/04/05 10:02:33;;;;;;;12.27;2.70;;;20.00;99.90;;;;;;5046918;28;20384;-81
2021/04/05 10:05:01;;;;;;;10.52;3.03;;;20.00;99.90;;;;;;5046486;28;20766;-81
2021/04/05 10:07:29;;;;;;;11.95;2.88;;;19.90;99.90;;;;;;5042257;28;20963;-81
2021/04/05 10:09:57;;;;;;;9.38;2.70;;;19.90;99.90;;;;;;5043086;28;20901;-81
2021/04/05 10:12:26;;;;;;;10.95;2.50;;;19.80;99.90;;;;;;5045477;28;20386;-82
2021/04/05 10:14:56;;;;;;;8.75;2.97;;;19.80;99.90;;;;;;5046892;28;20438;-82
2021/04/05 10:17:25;;;;;;;10.25;2.95;;;19.80;99.90;;;;;;5034274;28;20389;-81
2021/04/05 10:19:56;;;;;;;10.35;3.03;;;19.80;99.90;;;;;;5026594;28;21125;-82
2021/04/05 10:22:23;;;;;;;13.07;3.22;;;19.70;99.90;;;;;;5026406;28;20374;-81
2021/04/05 10:24:57;;;;;;;13.10;3.03;;;19.60;99.90;;;;;;5045150;28;20400;-81
2021/04/05 10:27:27;;;;;;;9.77;2.80;;;19.60;99.90;;;;;;5045550;28;20419;-82
2021/04/05 10:29:56;;;;;;;9.57;2.35;;;19.50;99.90;;;;;;5046086;28;20392;-82
2021/04/05 10:32:26;;;;;;;11.87;2.60;;;19.50;99.90;;;;;;5046037;28;20415;-82
2021/04/05 10:34:58;;;;;;;10.15;2.65;;;19.50;99.90;;;;;;5028768;28;20745;-82
2021/04/05 10:37:33;;;;;;;11.07;2.55;;;19.50;99.90;;;;;;5035064;28;20751;-82
2021/04/05 10:40:02;;;;;;;8.13;2.50;;;19.40;99.90;;;;;;5040910;28;20903;-82
2021/04/05 10:42:53;;;;;;;9.98;2.70;;;19.50;99.90;;;;;;5040009;28;21216;-82
2021/04/05 10:45:30;;;;;;;12.60;2.65;;;19.40;99.90;;;;;;5042663;28;20492;-82
2021/04/05 10:48:24;;;;;;;12.35;3.00;;;19.40;99.90;;;;;;5043247;28;20465;-82
2021/04/05 10:50:58;;;;;;;9.70;2.75;;;19.40;99.90;;;;;;5033213;28;20474;-81
2021/04/05 10:53:32;;;;;;;6.72;2.42;;;19.40;99.90;;;;;;5029729;28;20480;-82
2021/04/05 10:56:08;;;;;;;11.15;2.80;;;19.30;99.90;;;;;;5057282;28;20482;-80
2021/04/05 10:59:20;;;;;;;7.53;2.58;;;19.30;99.90;;;;;;5033756;28;20389;-81
2021/04/05 11:01:56;;;;;;;6.53;2.38;;;19.30;99.90;;;;;;5040461;28;20395;-82
2021/04/05 11:04:25;;;;;;;10.13;2.72;;;19.20;99.90;;;;;;5045458;28;20453;-81
2021/04/05 11:06:54;;;;;;;9.98;3.17;;;19.20;99.90;;;;;;5038678;28;20535;-81
2021/04/05 11:09:24;;;;;;;10.25;2.65;;;19.20;99.90;;;;;;5031650;28;20915;-81
2021/04/05 11:11:53;;;;;;;9.40;3.30;;;19.20;99.90;;;;;;5042477;28;20403;-82
2021/04/05 11:14:23;;;;;;;10.20;2.60;;;19.30;99.90;;;;;;5042573;28;20931;-82
2021/04/05 11:16:57;;;;;;;15.02;3.15;;;19.40;99.90;;;;;;5027176;28;20447;-82
2021/04/05 11:19:40;;;;;;;9.00;2.90;;;19.40;99.90;;;;;;5027037;28;20494;-81
2021/04/05 11:22:13;;;;;;;12.67;3.00;;;19.30;99.90;;;;;;5040824;28;20389;-82
2021/04/05 11:24:41;;;;;;;8.33;2.47;;;19.30;99.90;;;;;;5042587;28;20412;-82
2021/04/05 11:27:10;;;;;;;9.13;2.88;;;19.20;99.90;;;;;;5032171;28;20481;-82
2021/04/05 11:29:43;;;;;;;8.18;2.67;;;19.30;99.90;;;;;;5027915;28;20901;-81
2021/04/05 11:32:17;;;;;;;9.55;2.92;;;19.20;99.90;;;;;;5028928;28;20493;-81
2021/04/05 11:34:49;;;;;;;10.63;3.08;;;19.20;99.90;;;;;;5032235;28;20395;-81
2021/04/05 11:37:17;;;;;;;16.75;3.53;;;19.20;99.90;;;;;;5031291;28;20393;-82
2021/04/05 11:39:59;;;;;;;13.63;3.08;;;19.20;99.90;;;;;;5030082;28;20872;-80
2021/04/05 11:42:37;;;;;;;8.60;2.80;;;19.20;99.90;;;;;;5029275;28;20766;-81
2021/04/05 11:45:05;;;;;;;10.13;2.80;;;19.20;99.90;;;;;;5052603;28;20411;-81
2021/04/05 11:47:43;;;;;;;13.43;3.35;;;19.30;99.90;;;;;;5032942;28;20914;-81
2021/04/05 11:50:24;;;;;;;11.43;2.97;;;19.30;99.90;;;;;;5044721;28;20434;-82
2021/04/05 11:52:52;;;;;;;9.33;3.00;;;19.30;99.90;;;;;;5047953;28;20750;-81
2021/04/05 11:55:29;;;;;;;11.73;2.92;;;19.30;99.90;;;;;;5037122;28;20389;-82
2021/04/05 11:58:21;;;;;;;8.17;2.70;;;19.30;99.90;;;;;;5032328;28;20405;-81
2021/04/05 12:00:57;;;;;;;8.15;2.75;;;19.30;99.90;;;;;;5032342;28;20424;-82
2021/04/05 12:03:47;;;;;;;12.45;2.95;;;19.20;99.90;;;;;;5032287;28;20499;-82
2021/04/05 12:06:22;;;;;;;7.90;2.70;;;19.20;99.90;;;;;;5049832;28;20433;-82
2021/04/05 12:08:52;;;;;;;7.63;2.78;;;19.20;99.90;;;;;;5051012;28;20390;-81
2021/04/05 12:11:27;;;;;;;10.57;3.20;;;19.20;99.90;;;;;;5044773;28;20373;-81
2021/04/05 12:14:06;;;;;;;11.00;3.23;;;19.10;99.90;;;;;;5049928;28;20407;-80
2021/04/05 12:16:34;;;;;;;14.32;3.40;;;19.20;99.90;;;;;;5050518;28;20749;-80
2021/04/05 12:19:03;;;;;;;6.90;2.97;;;19.20;99.90;;;;;;5035803;28;20547;-80
2021/04/05 12:21:33;;;;;;;9.30;3.10;;;19.10;99.90;;;;;;5031943;28;20432;-81
2021/04/05 12:24:05;;;;;;;13.68;3.40;;;19.00;99.90;;;;;;5041430;28;20772;-80
2021/04/05 12:26:34;;;;;;;10.52;3.60;;;19.00;99.90;;;;;;5039616;28;20399;-80
2021/04/05 12:29:12;;;;;;;10.65;3.53;;;19.00;99.90;;;;;;5047087;28;20478;-80
2021/04/05 12:31:40;;;;;;;11.00;3.17;;;19.00;99.90;;;;;;5045054;28;21257;-80
2021/04/05 12:34:13;;;;;;;11.38;3.45;;;18.90;99.90;;;;;;5042819;28;20395;-80
2021/04/05 12:36:42;;;;;;;13.52;3.42;;;18.90;99.90;;;;;;5041485;28;20390;-81
2021/04/05 12:39:12;;;;;;;12.55;3.20;;;18.80;99.90;;;;;;5034960;28;20419;-81
2021/04/05 12:41:49;;;;;;;10.55;3.05;;;18.80;99.90;;;;;;5039446;28;20428;-81
2021/04/05 12:44:30;;;;;;;10.10;3.20;;;18.80;99.90;;;;;;5041684;28;20417;-81
2021/04/05 12:47:00;;;;;;;11.00;3.38;;;18.70;99.90;;;;;;5036576;28;20414;-79
2021/04/05 12:49:34;;;;;;;9.13;3.50;;;18.70;99.90;;;;;;5039744;28;20940;-81
2021/04/05 12:52:08;;;;;;;13.00;3.78;;;18.70;99.90;;;;;;5064093;28;20404;-82
2021/04/05 12:54:42;;;;;;;9.38;3.15;;;18.60;99.90;;;;;;5045417;28;20467;-81
2021/04/05 12:57:11;;;;;;;13.32;3.63;;;18.70;99.90;;;;;;5039064;28;21503;-81
2021/04/05 12:59:41;;;;;;;9.35;3.33;;;18.60;99.90;;;;;;5036025;28;20492;-80
2021/04/05 13:02:10;;;;;;;8.43;3.13;;;18.70;99.90;;;;;;5035096;28;20400;-80
2021/04/05 13:04:59;;;;;;;11.15;3.85;;;18.60;99.90;;;;;;5033100;28;20420;-81
2021/04/05 13:07:32;;;;;;;8.70;3.25;;;18.60;99.90;;;;;;5036888;28;20487;-80
2021/04/05 13:10:05;;;;;;;12.38;3.40;;;18.60;99.90;;;;;;5036542;28;20887;-80
2021/04/05 13:12:42;;;;;;;8.07;3.10;;;18.60;99.90;;;;;;5040900;28;20391;-80
2021/04/05 13:15:24;;;;;;;11.20;2.85;;;18.60;99.90;;;;;;5049124;28;20376;-81
2021/04/05 13:17:54;;;;;;;8.20;3.08;;;18.60;99.90;;;;;;5049452;28;20395;-80
2021/04/05 13:20:29;;;;;;;9.35;3.17;;;18.60;99.90;;;;;;5047521;28;20399;-80
2021/04/05 13:23:04;;;;;;;7.45;2.83;;;18.70;99.90;;;;;;5047830;28;20905;-80
2021/04/05 13:25:49;;;;;;;11.10;3.30;;;18.70;99.90;;;;;;5049403;28;20403;-80
2021/04/05 13:28:23;;;;;;;8.63;3.03;;;18.70;99.90;;;;;;5048319;28;20407;-80
2021/04/05 13:30:52;;;;;;;11.07;3.17;;;18.70;99.90;;;;;;5047589;28;20438;-80